Time;durP1;ratioP1;P1;durP2;ratioP2;P2;SDS_P1;SDS_P2;PMS_P1;PMS_P2;Temp;Humidity;BMP_temperature;BMP_pressure;BME280_temperature;BME280_humidity;BME280_pressure;Samples;Min_cycle;Max_cycle;Signal;HPM_P1;HPM_P2
2021/06/28 00:00:13;;;;;;;;;;;;;;;-142.75;77.87;76527.00;5071142;28;20495;-78
2021/06/28 00:02:38;;;;;;;;;;;;;;;-142.75;77.91;76515.19;5071360;28;19912;-78
2021/06/28 00:05:07;;;;;;;;;;;;;;;-142.75;77.89;76511.25;5071348;28;20369;-77
2021/06/28 00:07:33;;;;;;;;;;;;;;;-142.75;77.86;76507.31;5053168;28;19912;-78
2021/06/28 00:09:58;;;;;;;;;;;;;;;-142.75;77.82;76511.25;5053036;28;19939;-78
2021/06/28 00:12:23;;;;;;;;;;;;;;;-142.75;77.80;76507.31;5071274;28;19922;-78
2021/06/28 00:14:48;;;;;;;;;;;;;;;-142.75;77.79;76503.38;5071192;28;19924;-77
2021/06/28 00:17:13;;;;;;;;;;;;;;;-142.75;77.81;76495.50;5070981;28;20377;-78
2021/06/28 00:19:38;;;;;;;;;;;;;;;-142.75;77.79;76491.56;5071091;28;19912;-76
2021/06/28 00:22:04;;;;;;;;;;;;;;;-142.75;77.83;76485.66;5070829;28;19949;-77
2021/06/28 00:24:29;;;;;;;;;;;;;;;-142.75;77.74;76489.59;5071127;28;19989;-77
2021/06/28 00:26:54;;;;;;;;;;;;;;;-142.75;77.68;76491.56;5074904;28;19912;-76
2021/06/28 00:29:21;;;;;;;;;;;;;;;-142.75;77.56;76491.56;5077897;28;19912;-76
2021/06/28 00:31:46;;;;;;;;;;;;;;;-142.75;77.56;76489.59;5077286;28;19924;-78
2021/06/28 00:34:11;;;;;;;;;;;;;;;-142.75;77.65;76489.59;5059728;28;20431;-78
2021/06/28 00:36:37;;;;;;;;;;;;;;;-142.75;77.67;76483.69;5059588;28;19916;-78
2021/06/28 00:39:02;;;;;;;;;;;;;;;-142.75;77.63;76479.75;5077581;28;19943;-76
2021/06/28 00:41:27;;;;;;;;;;;;;;;-142.75;77.65;76477.78;5077441;28;19912;-77
2021/06/28 00:43:53;;;;;;;;;;;;;;;-142.75;77.68;76475.81;5077488;28;19917;-77
2021/06/28 00:46:18;;;;;;;;;;;;;;;-142.75;77.73;76471.88;5059525;28;20320;-78
2021/06/28 00:48:43;;;;;;;;;;;;;;;-142.75;77.70;76473.84;5077657;28;19975;-77
2021/06/28 00:51:08;;;;;;;;;;;;;;;-142.75;77.73;76467.94;5077114;28;20331;-77
2021/06/28 00:53:33;;;;;;;;;;;;;;;-142.75;77.68;76465.97;5077492;28;19916;-78
2021/06/28 00:56:11;;;;;;;;;;;;;;;-142.75;77.68;76467.94;5077408;28;19952;-78
2021/06/28 00:58:37;;;;;;;;;;;;;;;-142.75;77.65;76460.06;5059583;28;19919;-77
2021/06/28 01:01:03;;;;;;;;;;;;;;;-142.75;77.62;76460.06;5077150;28;19912;-77
2021/06/28 01:03:28;;;;;;;;;;;;;;;-142.75;77.41;76464.00;5059599;28;19957;-78
2021/06/28 01:05:53;;;;;;;;;;;;;;;-142.75;77.36;76467.94;5059351;28;19912;-78
2021/06/28 01:08:18;;;;;;;;;;;;;;;-142.75;77.36;76475.81;5077425;28;19916;-78
2021/06/28 01:10:43;;;;;;;;;;;;;;;-142.75;77.38;76475.81;5077212;28;19916;-78
2021/06/28 01:13:09;;;;;;;;;;;;;;;-142.75;77.52;76475.81;5059380;28;19912;-76
2021/06/28 01:15:34;;;;;;;;;;;;;;;-142.75;77.58;76479.75;5077200;28;19912;-78
2021/06/28 01:18:00;;;;;;;;;;;;;;;-142.75;77.65;76475.81;5077374;28;19913;-77
2021/06/28 01:20:27;;;;;;;;;;;;;;;-142.75;77.79;76475.81;5077050;28;19920;-78
2021/06/28 01:22:53;;;;;;;;;;;;;;;-142.75;77.87;76481.72;5077263;28;19916;-77
2021/06/28 01:25:26;;;;;;;;;;;;;;;-142.75;77.86;76481.72;5077057;28;19974;-78
2021/06/28 01:27:51;;;;;;;;;;;;;;;-142.75;77.95;76483.69;5077059;28;20267;-77
2021/06/28 01:30:18;;;;;;;;;;;;;;;-142.75;77.95;76497.47;5076799;28;19919;-76
2021/06/28 01:32:44;;;;;;;;;;;;;;;-142.75;78.01;76499.44;5077067;28;20382;-79
2021/06/28 01:35:10;;;;;;;;;;;;;;;-142.75;78.08;76501.41;5063961;28;20397;-78
2021/06/28 01:37:35;;;;;;;;;;;;;;;-142.75;78.16;76497.47;5054202;28;19913;-77
2021/06/28 01:40:03;;;;;;;;;;;;;;;-142.75;78.23;76515.19;5055643;28;19954;-77
2021/06/28 01:42:28;;;;;;;;;;;;;;;-142.75;78.41;76525.03;5073769;28;19912;-77
2021/06/28 01:44:54;;;;;;;;;;;;;;;-142.75;78.52;76525.03;5073897;28;19927;-77
2021/06/28 01:47:19;;;;;;;;;;;;;;;-142.75;78.56;76527.00;5055685;28;19924;-76
2021/06/28 01:49:45;;;;;;;;;;;;;;;-142.75;78.62;76530.91;5073732;28;20003;-78
2021/06/28 01:52:10;;;;;;;;;;;;;;;-142.75;78.56;76527.00;5073583;28;19921;-77
2021/06/28 01:54:36;;;;;;;;;;;;;;;-142.75;78.56;76519.13;5073757;28;19919;-77
2021/06/28 01:57:01;;;;;;;;;;;;;;;-142.75;78.63;76528.97;5073567;28;19912;-78
2021/06/28 01:59:29;;;;;;;;;;;;;;;-142.75;78.76;76536.84;5073451;28;20015;-76
2021/06/28 02:01:55;;;;;;;;;;;;;;;-142.75;78.96;76542.72;5073285;28;20362;-78
2021/06/28 02:04:20;;;;;;;;;;;;;;;-142.75;79.08;76548.63;5055423;28;19924;-76
2021/06/28 02:06:47;;;;;;;;;;;;;;;-142.75;79.08;76556.50;5072227;28;19912;-77
2021/06/28 02:09:12;;;;;;;;;;;;;;;-142.75;79.22;76558.47;5073601;28;19912;-76
2021/06/28 02:11:37;;;;;;;;;;;;;;;-142.75;79.39;76550.59;5055278;28;19913;-77
2021/06/28 02:14:03;;;;;;;;;;;;;;;-142.75;79.55;76548.63;5063340;28;19920;-77
2021/06/28 02:16:28;;;;;;;;;;;;;;;-142.75;79.75;76554.53;5053193;28;19982;-77
2021/06/28 02:18:53;;;;;;;;;;;;;;;-142.75;79.63;76550.59;5053275;28;20008;-76
2021/06/28 02:21:18;;;;;;;;;;;;;;;-142.75;79.35;76554.53;5055024;28;20320;-77
2021/06/28 02:23:44;;;;;;;;;;;;;;;-142.75;79.25;76552.56;5055372;28;19964;-77
2021/06/28 02:26:10;;;;;;;;;;;;;;;-142.75;79.35;76552.56;5073117;28;19918;-78
2021/06/28 02:28:36;;;;;;;;;;;;;;;-142.75;79.46;76554.53;5073195;28;19965;-78
2021/06/28 02:31:03;;;;;;;;;;;;;;;-142.75;79.41;76556.50;5054746;28;19958;-77
2021/06/28 02:33:28;;;;;;;;;;;;;;;-142.75;79.47;76556.50;5055283;28;19912;-77
2021/06/28 02:35:54;;;;;;;;;;;;;;;-142.75;79.56;76562.41;5072876;28;19920;-77
2021/06/28 02:38:19;;;;;;;;;;;;;;;-142.75;79.45;76560.44;5054934;28;19955;-77
2021/06/28 02:40:44;;;;;;;;;;;;;;;-142.75;79.25;76562.41;5069349;28;19936;-78
2021/06/28 02:43:10;;;;;;;;;;;;;;;-142.75;79.21;76562.41;5052804;28;19917;-77
2021/06/28 02:45:35;;;;;;;;;;;;;;;-142.75;79.13;76566.34;5052645;28;20294;-77
2021/06/28 02:48:00;;;;;;;;;;;;;;;-142.75;78.80;76582.09;5052649;28;19967;-78
2021/06/28 02:50:26;;;;;;;;;;;;;;;-142.75;78.63;76593.91;5053196;28;19925;-77
2021/06/28 02:52:51;;;;;;;;;;;;;;;-142.75;78.68;76601.78;5072557;28;19912;-77
2021/06/28 02:55:16;;;;;;;;;;;;;;;-142.75;78.38;76617.53;5072502;28;20425;-77
2021/06/28 02:57:41;;;;;;;;;;;;;;;-142.75;78.41;76601.78;5072355;28;19918;-77
2021/06/28 03:00:11;;;;;;;;;;;;;;;-142.75;77.75;76617.53;5072109;28;20003;-77
2021/06/28 03:02:36;;;;;;;;;;;;;;;-142.75;77.48;76633.28;5054360;28;19916;-77
2021/06/28 03:05:03;;;;;;;;;;;;;;;-142.75;77.40;76631.31;5072233;28;20071;-77
2021/06/28 03:07:29;;;;;;;;;;;;;;;-142.75;77.29;76639.19;5072080;28;20302;-78
2021/06/28 03:09:54;;;;;;;;;;;;;;;-142.75;77.38;76633.28;5054130;28;20030;-78
2021/06/28 03:12:19;;;;;;;;;;;;;;;-142.75;77.29;76643.13;5054229;28;19916;-77
2021/06/28 03:14:44;;;;;;;;;;;;;;;-142.75;77.22;76651.00;5064038;28;19975;-79
2021/06/28 03:17:09;;;;;;;;;;;;;;;-142.75;77.26;76652.97;5051786;28;20361;-78
2021/06/28 03:19:35;;;;;;;;;;;;;;;-142.75;77.16;76652.97;5052108;28;19912;-77
2021/06/28 03:22:00;;;;;;;;;;;;;;;-142.75;77.16;76658.88;5050559;28;19925;-77
2021/06/28 03:24:25;;;;;;;;;;;;;;;-142.75;77.11;76662.81;5069279;28;19916;-77
2021/06/28 03:26:50;;;;;;;;;;;;;;;-142.75;77.16;76664.78;5071962;28;19920;-77
2021/06/28 03:29:15;;;;;;;;;;;;;;;-142.75;77.26;76672.66;5071748;28;19912;-76
2021/06/28 03:31:41;;;;;;;;;;;;;;;-142.75;78.38;76645.09;5071659;28;20327;-77
2021/06/28 03:34:06;;;;;;;;;;;;;;;-142.75;79.14;76623.44;5071910;28;20289;-78
2021/06/28 03:36:31;;;;;;;;;;;;;;;-142.75;79.35;76625.41;5071639;28;19919;-77
2021/06/28 03:38:56;;;;;;;;;;;;;;;-142.75;79.17;76641.16;5053846;28;20055;-77
2021/06/28 03:41:22;;;;;;;;;;;;;;;-142.75;79.29;76645.09;5071412;28;19958;-77
2021/06/28 03:43:47;;;;;;;;;;;;;;;-142.75;79.46;76649.03;5071522;28;19912;-77
2021/06/28 03:46:12;;;;;;;;;;;;;;;-142.75;80.07;76625.41;5071622;28;19916;-78
2021/06/28 03:48:37;;;;;;;;;;;;;;;-142.75;80.44;76621.47;5071655;28;20558;-76
2021/06/28 03:51:03;;;;;;;;;;;;;;;-142.75;80.47;76607.69;5053388;28;19984;-77
2021/06/28 03:53:28;;;;;;;;;;;;;;;-142.75;80.50;76607.69;5070231;28;20559;-77
2021/06/28 03:55:53;;;;;;;;;;;;;;;-142.75;80.52;76613.59;5053500;28;19912;-77
2021/06/28 03:58:18;;;;;;;;;;;;;;;-142.75;80.29;76615.56;5053345;28;19919;-77
2021/06/28 04:00:45;;;;;;;;;;;;;;;-142.75;80.08;76617.53;5070668;28;19991;-78
2021/06/28 04:03:10;;;;;;;;;;;;;;;-142.75;79.75;76635.25;5071303;28;19934;-77
2021/06/28 04:05:36;;;;;;;;;;;;;;;-142.75;79.36;76637.22;5053425;28;19938;-78
2021/06/28 04:08:01;;;;;;;;;;;;;;;-142.75;78.94;76649.03;5071341;28;20259;-78
2021/06/28 04:10:26;;;;;;;;;;;;;;;-142.75;78.94;76652.97;5071010;28;19912;-77
2021/06/28 04:12:52;;;;;;;;;;;;;;;-142.75;78.60;76652.97;5071370;28;19924;-78
2021/06/28 04:15:18;;;;;;;;;;;;;;;-142.75;78.50;76645.09;5053191;28;19919;-77
2021/06/28 04:17:45;;;;;;;;;;;;;;;-142.75;78.25;76647.06;5071171;28;19913;-77
2021/06/28 04:20:11;;;;;;;;;;;;;;;-142.75;78.03;76652.97;5053037;28;19942;-77
2021/06/28 04:22:37;;;;;;;;;;;;;;;-142.75;78.17;76658.88;5071097;28;19931;-77
2021/06/28 04:25:07;;;;;;;;;;;;;;;-142.75;78.29;76660.84;5071066;28;19916;-77
2021/06/28 04:27:33;;;;;;;;;;;;;;;-142.75;78.29;76649.03;5051605;28;19912;-77
2021/06/28 04:29:58;;;;;;;;;;;;;;;-142.75;78.49;76633.28;5070638;28;19912;-78
2021/06/28 04:32:23;;;;;;;;;;;;;;;-142.75;78.86;76619.50;5071087;28;19912;-77
2021/06/28 04:34:48;;;;;;;;;;;;;;;-142.75;79.23;76605.72;5071120;28;20346;-77
2021/06/28 04:37:13;;;;;;;;;;;;;;;-142.75;79.43;76584.06;5071040;28;19920;-77
2021/06/28 04:39:39;;;;;;;;;;;;;;;-142.75;79.50;76566.34;5071047;28;19916;-77
2021/06/28 04:42:05;;;;;;;;;;;;;;;-142.75;79.49;76556.50;5070751;28;19931;-77
2021/06/28 04:44:30;;;;;;;;;;;;;;;-142.75;79.49;76546.66;5069359;28;19917;-77
2021/06/28 04:46:55;;;;;;;;;;;;;;;-142.75;79.39;76542.72;5070908;28;19912;-79
2021/06/28 04:49:20;;;;;;;;;;;;;;;-142.75;79.29;76527.00;5052781;28;19912;-77
2021/06/28 04:51:46;;;;;;;;;;;;;;;-142.75;79.20;76523.06;5052687;28;19999;-77
2021/06/28 04:54:11;;;;;;;;;;;;;;;-142.75;79.00;76507.31;5070822;28;19966;-77
2021/06/28 04:56:36;;;;;;;;;;;;;;;-142.75;78.58;76499.44;5070762;28;19912;-77
2021/06/28 04:59:01;;;;;;;;;;;;;;;-142.75;78.32;76497.47;5070901;28;19924;-77
2021/06/28 05:01:26;;;;;;;;;;;;;;;-142.75;77.92;76495.50;5052637;28;19959;-78
2021/06/28 05:03:51;;;;;;;;;;;;;;;-142.75;77.60;76487.63;5070864;28;19912;-77
2021/06/28 05:06:19;;;;;;;;;;;;;;;-142.75;77.23;76491.56;5052723;28;19913;-78
2021/06/28 05:08:44;;;;;;;;;;;;;;;-142.75;77.35;76491.56;5071267;28;20357;-77
2021/06/28 05:11:10;;;;;;;;;;;;;;;-142.75;77.08;76479.75;5070479;28;19951;-78
2021/06/28 05:13:35;;;;;;;;;;;;;;;-142.75;76.78;76479.75;5054529;28;19918;-79
2021/06/28 05:18:29;;;;;;;;;;;;;;;-142.75;75.96;76454.16;5097552;22;19959;-79
2021/06/28 05:20:55;;;;;;;;;;;;;;;-142.75;74.61;76442.34;5074251;28;19965;-79
2021/06/28 05:23:20;;;;;;;;;;;;;;;-142.75;74.55;76428.56;5063696;28;19916;-82
2021/06/28 05:25:45;;;;;;;;;;;;;;;-142.75;74.56;76422.66;5068060;28;19916;-80
2021/06/28 05:28:11;;;;;;;;;;;;;;;-142.75;74.66;76412.81;5075649;28;20037;-80
2021/06/28 05:30:36;;;;;;;;;;;;;;;-142.75;74.41;76389.19;5060132;28;19916;-78
2021/06/28 05:33:01;;;;;;;;;;;;;;;-142.75;72.20;76393.13;5067029;28;20370;-80
2021/06/28 05:35:27;;;;;;;;;;;;;;;-142.75;73.00;76369.50;5064498;28;20390;-81
2021/06/28 05:37:52;;;;;;;;;;;;;;;-142.75;71.78;76353.78;5067937;28;19998;-79
2021/06/28 05:40:17;;;;;;;;;;;;;;;-142.75;71.79;76353.78;5067772;28;20289;-80
2021/06/28 05:42:44;;;;;;;;;;;;;;;-142.75;72.27;76322.28;5075132;28;19912;-79
2021/06/28 05:45:10;;;;;;;;;;;;;;;-142.75;70.98;76345.91;5060831;28;19967;-79
2021/06/28 05:47:35;;;;;;;;;;;;;;;-142.75;71.43;76300.63;5074857;28;19913;-80
2021/06/28 05:50:00;;;;;;;;;;;;;;;-142.75;71.53;76278.97;5074980;28;19976;-80
2021/06/28 05:52:25;;;;;;;;;;;;;;;-142.75;69.36;76269.13;5074868;28;19951;-80
2021/06/28 05:54:51;;;;;;;;;;;;;;;-142.75;69.82;76257.31;5066361;28;20365;-80
2021/06/28 05:57:18;;;;;;;;;;;;;;;-142.75;70.01;76237.63;5074859;28;19919;-81
2021/06/28 05:59:44;;;;;;;;;;;;;;;-142.75;68.98;76221.88;5060070;28;19912;-81
2021/06/28 06:02:09;;;;;;;;;;;;;;;-142.75;67.95;76215.97;5065724;28;20007;-80
2021/06/28 06:04:34;;;;;;;;;;;;;;;-142.75;68.30;76227.78;5074361;28;20438;-80
2021/06/28 06:07:00;;;;;;;;;;;;;;;-142.75;69.23;76229.75;5063991;28;19919;-81
2021/06/28 06:09:25;;;;;;;;;;;;;;;-142.75;67.91;76210.06;5074236;28;19916;-79
2021/06/28 06:11:50;;;;;;;;;;;;;;;-142.75;67.90;76208.09;5065399;28;19961;-80
2021/06/28 06:14:16;;;;;;;;;;;;;;;-142.75;66.94;76174.66;5074679;28;20316;-80
2021/06/28 06:16:41;;;;;;;;;;;;;;;-142.75;67.42;76137.25;5074462;28;19920;-79
2021/06/28 06:19:06;;;;;;;;;;;;;;;-142.75;66.65;76129.38;5074430;28;19913;-80
2021/06/28 06:21:31;;;;;;;;;;;;;;;-142.75;65.17;76090.00;5067098;28;20338;-79
2021/06/28 06:23:57;;;;;;;;;;;;;;;-142.75;65.11;76090.00;5058162;28;19916;-80
2021/06/28 06:26:22;;;;;;;;;;;;;;;-142.75;64.73;76091.97;5061335;28;19943;-80
2021/06/28 06:28:47;;;;;;;;;;;;;;;-142.75;65.79;76078.19;5065925;28;19916;-80
2021/06/28 06:31:13;;;;;;;;;;;;;;;-142.75;66.41;76113.63;5057413;28;20011;-82
2021/06/28 06:33:38;;;;;;;;;;;;;;;-142.75;66.05;76143.16;5067743;28;19923;-80
2021/06/28 06:36:04;;;;;;;;;;;;;;;-142.75;66.76;76147.09;5063810;28;20519;-78
2021/06/28 06:38:29;;;;;;;;;;;;;;;-142.75;66.91;76147.09;5071198;28;19912;-80
2021/06/28 06:40:54;;;;;;;;;;;;;;;-142.75;66.13;76135.28;5063867;28;19919;-77
2021/06/28 06:43:19;;;;;;;;;;;;;;;-142.75;67.07;76123.47;5073883;28;20007;-79
2021/06/28 06:45:45;;;;;;;;;;;;;;;-142.75;65.80;76125.44;5065746;28;20019;-81
2021/06/28 06:48:11;;;;;;;;;;;;;;;-142.75;67.13;76111.66;5068690;28;19963;-78
2021/06/28 06:50:36;;;;;;;;;;;;;;;-142.75;68.07;76082.13;5074073;28;20411;-78
2021/06/28 06:53:02;;;;;;;;;;;;;;;-142.75;66.40;76068.38;5064868;28;19924;-79
2021/06/28 06:55:28;;;;;;;;;;;;;;;-142.75;66.08;76050.66;5074145;28;20520;-78
2021/06/28 06:57:53;;;;;;;;;;;;;;;-142.75;65.21;76036.88;5073819;28;19924;-79
2021/06/28 07:00:19;;;;;;;;;;;;;;;-142.75;64.61;76038.84;5074041;28;19966;-80
2021/06/28 07:02:45;;;;;;;;;;;;;;;-142.75;64.53;76064.44;5063296;28;19912;-80
2021/06/28 07:05:11;;;;;;;;;;;;;;;-142.75;65.13;76027.03;5071936;28;19974;-79
2021/06/28 07:07:37;;;;;;;;;;;;;;;-142.75;63.71;76003.41;5063218;28;19913;-78
2021/06/28 07:10:06;;;;;;;;;;;;;;;-142.75;61.77;75924.69;5059979;28;19919;-79
2021/06/28 07:12:31;;;;;;;;;;;;;;;-142.75;60.66;75865.63;5073750;28;19913;-82
2021/06/28 07:14:56;;;;;;;;;;;;;;;-142.75;58.91;75828.25;5065830;28;19916;-80
2021/06/28 07:17:22;;;;;;;;;;;;;;;-142.75;59.04;75767.22;5065659;28;19924;-81
2021/06/28 07:19:47;;;;;;;;;;;;;;;-142.75;58.40;75759.38;5072434;28;19916;-80
2021/06/28 07:22:12;;;;;;;;;;;;;;;-142.75;57.36;75680.63;5066313;28;19913;-80
2021/06/28 07:24:37;;;;;;;;;;;;;;;-142.75;55.38;75641.28;5072864;28;19924;-79
2021/06/28 07:27:02;;;;;;;;;;;;;;;-142.75;55.26;75629.47;5072616;28;20407;-79
2021/06/28 07:29:28;;;;;;;;;;;;;;;-142.75;55.29;75601.91;5072922;28;19912;-81
2021/06/28 07:31:53;;;;;;;;;;;;;;;-142.75;54.35;75680.63;5063617;28;19912;-81
2021/06/28 07:34:18;;;;;;;;;;;;;;;-142.75;56.25;75637.34;5066372;28;19959;-81
2021/06/28 07:36:43;;;;;;;;;;;;;;;-142.75;56.55;75552.72;5065880;28;19919;-80
2021/06/28 07:39:09;;;;;;;;;;;;;;;-142.75;57.10;75475.97;5074286;28;20393;-80
2021/06/28 07:41:34;;;;;;;;;;;;;;;-142.75;51.30;75405.13;5063963;28;20002;-80
2021/06/28 07:44:01;;;;;;;;;;;;;;;-142.75;51.90;75357.91;5067918;28;19913;-80
2021/06/28 07:46:26;;;;;;;;;;;;;;;-142.75;51.50;75271.31;5055567;28;19921;-80
2021/06/28 07:48:51;;;;;;;;;;;;;;;-142.75;49.60;75196.53;5062061;28;19913;-78
2021/06/28 07:51:16;;;;;;;;;;;;;;;-142.75;46.87;75123.72;5073859;28;19924;-81
2021/06/28 07:53:42;;;;;;;;;;;;;;;-142.75;48.47;75052.88;5061164;28;19935;-80
2021/06/28 07:56:19;;;;;;;;;;;;;;;-142.75;46.24;75050.91;5074280;28;20564;-80
2021/06/28 07:58:46;;;;;;;;;;;;;;;-142.75;47.04;75214.25;5072213;28;19916;-79
2021/06/28 08:01:11;;;;;;;;;;;;;;;-142.75;46.32;75247.69;5073197;28;20469;-80
2021/06/28 08:03:39;;;;;;;;;;;;;;;-142.75;49.58;75218.19;5067883;28;19985;-79
2021/06/28 08:06:04;;;;;;;;;;;;;;;-142.75;48.53;75194.56;5075229;28;20293;-80
2021/06/28 08:08:29;;;;;;;;;;;;;;;-142.75;46.75;75208.34;5073550;28;19999;-79
2021/06/28 08:10:54;;;;;;;;;;;;;;;-142.75;49.38;75359.88;5073086;28;19924;-82
2021/06/28 08:13:19;;;;;;;;;;;;;;;-142.75;49.69;75413.00;5073573;28;19912;-81
2021/06/28 08:15:44;;;;;;;;;;;;;;;-142.75;52.08;75334.28;5062680;28;20015;-79
2021/06/28 08:18:10;;;;;;;;;;;;;;;-142.75;48.75;75279.19;5066890;28;19913;-78
2021/06/28 08:20:37;;;;;;;;;;;;;;;-142.75;49.65;75314.59;5066023;28;19919;-81
2021/06/28 08:23:03;;;;;;;;;;;;;;;-142.75;47.15;75231.94;5070714;28;19919;-80
2021/06/28 08:25:28;;;;;;;;;;;;;;;-142.75;47.50;75259.50;5073876;28;19920;-80
2021/06/28 08:27:55;;;;;;;;;;;;;;;-142.75;48.27;75352.00;5072958;28;19952;-80
2021/06/28 08:30:20;;;;;;;;;;;;;;;-142.75;48.98;75385.44;5065401;28;19912;-80
2021/06/28 08:32:46;;;;;;;;;;;;;;;-142.75;50.34;75464.16;5074825;28;19999;-80
2021/06/28 08:35:11;;;;;;;;;;;;;;;-142.75;51.61;75523.19;5062758;28;20301;-80
2021/06/28 08:37:36;;;;;;;;;;;;;;;-142.75;52.59;75472.03;5067101;28;19928;-79
2021/06/28 08:40:02;;;;;;;;;;;;;;;-142.75;51.68;75460.22;5070714;28;19931;-78
2021/06/28 08:42:28;;;;;;;;;;;;;;;-142.75;52.53;75397.25;5071632;28;19970;-78
2021/06/28 08:44:53;;;;;;;;;;;;;;;-142.75;50.98;75294.94;5071600;28;19963;-79
2021/06/28 08:47:18;;;;;;;;;;;;;;;-142.75;48.83;75304.75;5068187;28;19920;-80
2021/06/28 08:49:43;;;;;;;;;;;;;;;-142.75;48.84;75369.69;5068138;28;19964;-78
2021/06/28 08:52:09;;;;;;;;;;;;;;;-142.75;49.63;75428.75;5063441;28;19916;-81
2021/06/28 08:54:34;;;;;;;;;;;;;;;-142.75;49.79;75369.69;5076755;28;19917;-78
2021/06/28 08:56:59;;;;;;;;;;;;;;;-142.75;50.34;75409.06;5076598;28;19920;-81
2021/06/28 08:59:25;;;;;;;;;;;;;;;-142.75;51.03;75450.38;5076251;28;19930;-81
2021/06/28 09:01:51;;;;;;;;;;;;;;;-142.75;52.20;75477.94;5062963;28;20417;-81
2021/06/28 09:04:17;;;;;;;;;;;;;;;-142.75;52.21;75497.63;5060920;28;19974;-82
2021/06/28 09:06:42;;;;;;;;;;;;;;;-142.75;52.47;75544.84;5075166;28;19917;-80
2021/06/28 09:09:09;;;;;;;;;;;;;;;-142.75;52.56;75621.59;5075179;28;19927;-81
2021/06/28 09:11:36;;;;;;;;;;;;;;;-142.75;53.91;75664.91;5063200;28;20435;-81
2021/06/28 09:14:03;;;;;;;;;;;;;;;-142.75;55.85;75664.91;5075533;28;19920;-82
2021/06/28 09:16:29;;;;;;;;;;;;;;;-142.75;56.04;75700.31;5074395;28;19924;-81
2021/06/28 09:19:02;;;;;;;;;;;;;;;-142.75;55.85;75684.56;5074039;28;19924;-79
2021/06/28 09:21:29;;;;;;;;;;;;;;;-142.75;55.82;75723.94;5073771;28;19923;-81
2021/06/28 09:23:55;;;;;;;;;;;;;;;-142.75;56.57;75716.06;5071585;28;19916;-80
2021/06/28 09:26:25;;;;;;;;;;;;;;;-142.75;55.08;75708.19;5075389;28;19927;-79
2021/06/28 09:28:53;;;;;;;;;;;;;;;-142.75;55.27;75720.00;5069324;28;19916;-80
2021/06/28 09:31:38;;;;;;;;;;;;;;;-142.75;56.82;75743.63;5073946;28;19924;-78
2021/06/28 09:34:04;;;;;;;;;;;;;;;-142.75;57.19;75735.75;5073464;28;19923;-78
2021/06/28 09:36:29;;;;;;;;;;;;;;;-142.75;58.31;75716.06;5059706;28;20377;-79
2021/06/28 09:38:54;;;;;;;;;;;;;;;-142.75;58.23;75723.94;5073996;28;19920;-79
2021/06/28 09:41:19;;;;;;;;;;;;;;;-142.75;58.30;75716.06;5063884;28;19924;-79
2021/06/28 09:43:44;;;;;;;;;;;;;;;-142.75;58.63;75716.06;5073790;28;19931;-78
2021/06/28 09:46:17;;;;;;;;;;;;;;;-142.75;56.10;75737.72;5062167;28;19927;-80
2021/06/28 09:48:46;;;;;;;;;;;;;;;-142.75;56.21;75759.38;5060769;28;20645;-81
2021/06/28 09:51:22;;;;;;;;;;;;;;;-142.75;57.39;75769.19;5072554;28;19920;-78
2021/06/28 09:53:48;;;;;;;;;;;;;;;-142.75;58.28;75761.34;5074240;28;19917;-79
2021/06/28 09:56:29;;;;;;;;;;;;;;;-142.75;58.42;75755.44;5074317;28;19924;-78
2021/06/28 09:58:54;;;;;;;;;;;;;;;-142.75;58.94;75751.50;5073313;28;19920;-79
2021/06/28 10:01:22;;;;;;;;;;;;;;;-142.75;58.87;75743.63;5056205;28;19923;-79
2021/06/28 10:03:51;;;;;;;;;;;;;;;-142.75;58.25;75773.13;5074906;28;20003;-80
2021/06/28 10:08:46;;;;;;;;;;;;;;;-142.75;59.88;75765.25;5073965;28;19917;-78
2021/06/28 10:11:14;;;;;;;;;;;;;;;-142.75;60.97;75771.16;5073992;28;19916;-79
2021/06/28 10:13:40;;;;;;;;;;;;;;;-142.75;60.90;75775.09;5074178;28;19927;-79
2021/06/28 10:16:05;;;;;;;;;;;;;;;-142.75;61.25;75781.00;5072883;28;19982;-79
2021/06/28 10:18:31;;;;;;;;;;;;;;;-142.75;61.49;75777.06;5072265;28;19920;-79
2021/06/28 10:20:56;;;;;;;;;;;;;;;-142.75;61.51;75786.91;5071639;28;19966;-80
2021/06/28 10:23:21;;;;;;;;;;;;;;;-142.75;61.00;75820.38;5071806;28;20002;-79
2021/06/28 10:25:46;;;;;;;;;;;;;;;-142.75;61.19;75838.09;5073588;28;20018;-78
2021/06/28 10:28:12;;;;;;;;;;;;;;;-142.75;59.49;75842.03;5059772;28;19916;-78
2021/06/28 10:30:37;;;;;;;;;;;;;;;-142.75;60.08;75855.81;5073727;28;19953;-78
2021/06/28 10:33:04;;;;;;;;;;;;;;;-142.75;60.82;75871.53;5072314;28;20519;-79
2021/06/28 10:35:31;;;;;;;;;;;;;;;-142.75;60.34;75877.44;5061163;28;20604;-80
2021/06/28 10:37:59;;;;;;;;;;;;;;;-142.75;61.06;75901.06;5062627;28;19971;-81
2021/06/28 10:40:24;;;;;;;;;;;;;;;-142.75;60.14;75906.97;5057590;28;20374;-80
2021/06/28 10:42:51;;;;;;;;;;;;;;;-142.75;59.68;75908.94;5068075;28;20042;-79
2021/06/28 10:45:35;;;;;;;;;;;;;;;-142.75;61.29;75893.19;5057147;28;19943;-78
2021/06/28 10:48:08;;;;;;;;;;;;;;;-142.75;60.13;75889.25;5073696;28;20492;-79
2021/06/28 10:50:52;;;;;;;;;;;;;;;-142.75;60.21;75881.38;5065234;28;19916;-80
2021/06/28 10:53:19;;;;;;;;;;;;;;;-142.75;61.61;75871.53;5072875;28;20394;-79
2021/06/28 10:55:44;;;;;;;;;;;;;;;-142.75;61.09;75873.50;5063375;28;19970;-79
2021/06/28 10:58:26;;;;;;;;;;;;;;;-142.75;61.54;75857.78;5072712;28;20331;-79
2021/06/28 11:01:11;;;;;;;;;;;;;;;-142.75;62.44;75845.97;5072400;28;20011;-79
2021/06/28 11:03:36;;;;;;;;;;;;;;;-142.75;61.31;75853.84;5059517;28;19965;-80
2021/06/28 11:06:15;;;;;;;;;;;;;;;-142.75;60.39;75849.91;5068271;28;19925;-80
2021/06/28 11:08:57;;;;;;;;;;;;;;;-142.75;59.97;75849.91;5064362;28;19924;-79
2021/06/28 11:11:43;;;;;;;;;;;;;;;-142.75;60.67;75840.06;5071783;28;20015;-79
2021/06/28 11:14:08;;;;;;;;;;;;;;;-142.75;60.10;75838.09;5062147;28;20007;-79
2021/06/28 11:16:34;;;;;;;;;;;;;;;-142.75;60.86;75830.22;5072610;28;19917;-79
2021/06/28 11:18:59;;;;;;;;;;;;;;;-142.75;62.30;75820.38;5055674;28;19916;-78
2021/06/28 11:21:38;;;;;;;;;;;;;;;-142.75;62.29;75810.53;5067554;28;19923;-80
2021/06/28 11:24:04;;;;;;;;;;;;;;;-142.75;62.26;75796.75;5070944;28;19916;-80
2021/06/28 11:26:33;;;;;;;;;;;;;;;-142.75;62.83;75802.66;5071309;28;20441;-79
2021/06/28 11:28:58;;;;;;;;;;;;;;;-142.75;61.24;75802.66;5072084;28;19974;-79
2021/06/28 11:31:28;;;;;;;;;;;;;;;-142.75;59.83;75802.66;5071578;28;19944;-81
2021/06/28 11:33:58;;;;;;;;;;;;;;;-142.75;59.59;75794.78;5059987;28;20321;-80
2021/06/28 11:36:23;;;;;;;;;;;;;;;-142.75;58.63;75798.72;5063190;28;19923;-81
2021/06/28 11:38:52;;;;;;;;;;;;;;;-142.75;58.25;75804.63;5063233;28;19916;-81
2021/06/28 11:41:18;;;;;;;;;;;;;;;-142.75;57.79;75798.72;5071498;28;19917;-80
2021/06/28 11:43:48;;;;;;;;;;;;;;;-142.75;58.36;75790.84;5057093;28;19920;-80
2021/06/28 11:46:17;;;;;;;;;;;;;;;-142.75;60.54;75761.34;5071755;28;20002;-81
2021/06/28 11:48:48;;;;;;;;;;;;;;;-142.75;61.33;75741.66;5071009;28;19952;-80
2021/06/28 11:51:14;;;;;;;;;;;;;;;-142.75;56.97;75749.53;5062746;28;19924;-80
2021/06/28 11:53:41;;;;;;;;;;;;;;;-142.75;59.88;75731.81;5071753;28;19916;-79
2021/06/28 11:56:18;;;;;;;;;;;;;;;-142.75;58.19;75708.19;5070505;28;20008;-81
2021/06/28 11:58:50;;;;;;;;;;;;;;;-142.75;58.58;75655.06;5070666;28;19936;-81
2021/06/28 12:01:16;;;;;;;;;;;;;;;-142.75;57.93;75672.78;5070814;28;19928;-81
2021/06/28 12:03:41;;;;;;;;;;;;;;;-142.75;55.42;75692.44;5071914;28;19921;-83
2021/06/28 12:06:10;;;;;;;;;;;;;;;-142.75;56.06;75733.78;5071060;28;19938;-81
2021/06/28 12:08:35;;;;;;;;;;;;;;;-142.75;56.34;75747.56;5060278;28;19927;-83
2021/06/28 12:11:01;;;;;;;;;;;;;;;-142.75;56.85;75765.25;5052627;28;19920;-81
2021/06/28 12:13:29;;;;;;;;;;;;;;;-142.75;58.51;75769.19;5055806;28;19958;-81
2021/06/28 12:15:54;;;;;;;;;;;;;;;-142.75;57.32;75773.13;5065032;28;19991;-81
2021/06/28 12:18:19;;;;;;;;;;;;;;;-142.75;58.17;75775.09;5056212;28;19999;-81
2021/06/28 12:20:54;;;;;;;;;;;;;;;-142.75;59.60;75786.91;5058135;28;20301;-81
2021/06/28 12:23:19;;;;;;;;;;;;;;;-142.75;58.57;75796.75;5070624;28;19921;-81
2021/06/28 12:25:44;;;;;;;;;;;;;;;-142.75;60.62;75790.84;5059992;28;19990;-80
2021/06/28 12:28:09;;;;;;;;;;;;;;;-142.75;61.40;75782.97;5060874;28;19916;-81